createdAt,value
2018-02-08T00:02:11.571Z,-2.60
2018-02-08T00:04:39.081Z,-2.60
2018-02-08T00:07:06.589Z,-2.60
2018-02-08T00:09:34.113Z,-2.60
2018-02-08T00:12:01.618Z,-2.60
2018-02-08T00:14:29.390Z,-2.60
2018-02-08T00:16:56.892Z,-2.60
2018-02-08T00:19:24.415Z,-2.60
2018-02-08T00:21:52.695Z,-2.60
2018-02-08T00:24:20.998Z,-2.60
2018-02-08T00:26:48.506Z,-2.60
2018-02-08T00:29:16.029Z,-2.60
2018-02-08T00:31:43.573Z,-2.60
2018-02-08T00:34:11.094Z,-2.60
2018-02-08T00:36:38.688Z,-2.60
2018-02-08T00:39:06.209Z,-2.60
2018-02-08T00:41:34.491Z,-2.50
2018-02-08T00:44:02.078Z,-2.50
2018-02-08T00:46:29.648Z,-2.60
2018-02-08T00:48:57.176Z,-2.60
2018-02-08T00:51:25.480Z,-2.60
2018-02-08T00:53:53.009Z,-2.60
2018-02-08T00:56:21.282Z,-2.70
2018-02-08T00:58:49.590Z,-2.70
2018-02-08T01:01:17.097Z,-2.70
2018-02-08T01:03:44.705Z,-2.60
2018-02-08T01:06:12.266Z,-2.60
2018-02-08T01:08:39.822Z,-2.60
2018-02-08T01:11:07.339Z,-2.60
2018-02-08T01:13:35.261Z,-2.60
2018-02-08T01:16:02.767Z,-2.60
2018-02-08T01:18:30.302Z,-2.60
2018-02-08T01:20:57.810Z,-2.60
2018-02-08T01:23:26.190Z,-2.60
2018-02-08T01:25:54.462Z,-2.60
2018-02-08T01:28:22.754Z,-2.60
2018-02-08T01:30:50.262Z,-2.60
2018-02-08T01:33:17.796Z,-2.60
2018-02-08T01:35:45.306Z,-2.60
2018-02-08T01:38:12.861Z,-2.60
2018-02-08T01:40:40.374Z,-2.60
2018-02-08T01:43:07.916Z,-2.60
2018-02-08T01:45:35.426Z,-2.60
2018-02-08T01:48:02.955Z,-2.60
2018-02-08T01:50:30.486Z,-2.60
2018-02-08T01:52:58.014Z,-2.60
2018-02-08T01:55:26.319Z,-2.60
2018-02-08T01:57:53.835Z,-2.70
2018-02-08T02:00:21.368Z,-2.60
2018-02-08T02:02:48.874Z,-2.60
2018-02-08T02:05:17.167Z,-2.60
2018-02-08T02:07:44.669Z,-2.60
2018-02-08T02:10:12.194Z,-2.60
2018-02-08T02:12:39.784Z,-2.60
2018-02-08T02:15:07.294Z,-2.70
2018-02-08T02:17:35.578Z,-2.60
2018-02-08T02:20:03.116Z,-2.60
2018-02-08T02:22:31.394Z,-2.60
2018-02-08T02:24:59.682Z,-2.60
2018-02-08T02:27:27.190Z,-2.60
2018-02-08T02:29:54.713Z,-2.60
2018-02-08T02:32:22.261Z,-2.60
2018-02-08T02:34:49.786Z,-2.60
2018-02-08T02:37:17.294Z,-2.60
2018-02-08T02:39:44.826Z,-2.60
2018-02-08T02:42:13.119Z,-2.60
2018-02-08T02:44:40.642Z,-2.60
2018-02-08T02:47:08.922Z,-2.60
2018-02-08T02:49:37.227Z,-2.60
2018-02-08T02:52:04.734Z,-2.60
2018-02-08T02:54:32.265Z,-2.60
2018-02-08T02:56:59.777Z,-2.60
2018-02-08T02:59:28.071Z,-2.60
2018-02-08T03:01:55.573Z,-2.60
2018-02-08T03:04:23.107Z,-2.60
2018-02-08T03:06:50.655Z,-2.60
2018-02-08T03:09:18.178Z,-2.60
2018-02-08T03:11:45.769Z,-2.60
2018-02-08T03:14:13.294Z,-2.60
2018-02-08T03:16:41.575Z,-2.60
2018-02-08T03:19:09.862Z,-2.60
2018-02-08T03:21:38.165Z,-2.60
2018-02-08T03:24:05.689Z,-2.60
2018-02-08T03:26:33.968Z,-2.60
2018-02-08T03:29:02.266Z,-2.60
2018-02-08T03:31:29.769Z,-2.60
2018-02-08T03:33:57.298Z,-2.60
2018-02-08T03:36:25.121Z,-2.60
2018-02-08T03:38:53.419Z,-2.60
2018-02-08T03:41:21.698Z,-2.60
2018-02-08T03:43:49.627Z,-2.70
2018-02-08T03:46:17.137Z,-2.60
2018-02-08T03:48:44.649Z,-2.60
2018-02-08T03:51:12.169Z,-2.60
2018-02-08T03:53:39.669Z,-2.70
2018-02-08T03:56:07.189Z,-2.70
2018-02-08T03:58:35.037Z,-2.70
2018-02-08T04:01:02.570Z,-2.60
2018-02-08T04:03:30.850Z,-2.60
2018-02-08T04:05:58.383Z,-2.60
2018-02-08T04:08:25.887Z,-2.60
2018-02-08T04:10:53.418Z,-2.60
2018-02-08T04:13:21.689Z,-2.60
2018-02-08T04:15:49.974Z,-2.60
2018-02-08T04:18:18.639Z,-2.60
2018-02-08T04:20:46.230Z,-2.60
2018-02-08T04:23:13.734Z,-2.60
2018-02-08T04:25:41.266Z,-2.60
2018-02-08T04:28:08.774Z,-2.60
2018-02-08T04:30:36.365Z,-2.60
2018-02-08T04:33:03.870Z,-2.60
2018-02-08T04:35:31.406Z,-2.70
2018-02-08T04:40:51.392Z,-2.70
2018-02-08T04:43:30.651Z,-2.60
2018-02-08T04:46:10.146Z,-2.60
2018-02-08T04:48:38.418Z,-2.60
2018-02-08T04:51:06.815Z,-2.60
2018-02-08T04:53:34.317Z,-2.60
2018-02-08T04:56:01.818Z,-2.60
2018-02-08T04:58:30.207Z,-2.70
2018-02-08T05:00:57.723Z,-2.70
2018-02-08T05:03:25.241Z,-2.70
2018-02-08T05:05:52.745Z,-2.60
2018-02-08T05:08:20.278Z,-2.60
2018-02-08T05:10:47.794Z,-2.60
2018-02-08T05:13:15.314Z,-2.70
2018-02-08T05:15:44.352Z,-2.70
2018-02-08T05:18:11.882Z,-2.70
2018-02-08T05:20:40.194Z,-2.60
2018-02-08T05:23:07.717Z,-2.70
2018-02-08T05:25:35.986Z,-2.60
2018-02-08T05:28:03.515Z,-2.70
2018-02-08T05:30:31.021Z,-2.60
2018-02-08T05:32:59.301Z,-2.70
2018-02-08T05:35:27.689Z,-2.60
2018-02-08T05:37:55.257Z,-2.70
2018-02-08T05:40:22.778Z,-2.70
2018-02-08T05:42:50.367Z,-2.70
2018-02-08T05:45:17.930Z,-2.70
2018-02-08T05:47:45.440Z,-2.70
2018-02-08T05:50:12.966Z,-2.70
2018-02-08T05:52:40.770Z,-2.60
2018-02-08T05:55:08.301Z,-2.60
2018-02-08T05:57:35.819Z,-2.60
2018-02-08T06:00:03.342Z,-2.60
2018-02-08T06:02:32.798Z,-2.70
2018-02-08T06:05:00.303Z,-2.70
2018-02-08T06:07:29.338Z,-2.70
2018-02-08T06:09:56.854Z,-2.70
2018-02-08T06:12:24.383Z,-2.70
2018-02-08T06:14:51.915Z,-2.70
2018-02-08T06:17:19.442Z,-2.70
2018-02-08T06:19:47.035Z,-2.70
2018-02-08T06:22:14.590Z,-2.70
2018-02-08T06:24:42.102Z,-2.70
2018-02-08T06:27:09.626Z,-2.70
2018-02-08T06:29:37.134Z,-2.60
2018-02-08T06:32:04.654Z,-2.60
2018-02-08T06:34:32.181Z,-2.60
2018-02-08T06:36:59.702Z,-2.60
2018-02-08T06:39:27.211Z,-2.60
2018-02-08T06:41:54.730Z,-2.60
2018-02-08T06:44:23.049Z,-2.60
2018-02-08T06:46:50.583Z,-2.60
2018-02-08T06:49:18.850Z,-2.60
2018-02-08T06:51:47.187Z,-2.60
2018-02-08T06:54:15.118Z,-2.60
2018-02-08T06:56:42.691Z,-2.60
2018-02-08T06:59:10.240Z,-2.60
2018-02-08T07:01:37.794Z,-2.50
2018-02-08T07:04:05.351Z,-2.60
2018-02-08T07:06:32.849Z,-2.50
2018-02-08T07:09:00.371Z,-2.50
2018-02-08T07:11:27.877Z,-2.50
2018-02-08T07:13:55.408Z,-2.50
2018-02-08T07:16:22.933Z,-2.40
2018-02-08T07:18:51.319Z,-2.30
2018-02-08T07:21:18.829Z,-2.30
2018-02-08T07:23:46.437Z,-2.30
2018-02-08T07:26:13.945Z,-2.20
2018-02-08T07:28:41.463Z,-2.20
2018-02-08T07:31:09.014Z,-2.20
2018-02-08T07:33:36.543Z,-2.10
2018-02-08T07:36:04.050Z,-2.20
2018-02-08T07:38:31.569Z,-2.10
2018-02-08T07:40:59.862Z,-2.10
2018-02-08T07:43:27.426Z,-2.10
2018-02-08T07:45:54.991Z,-2.00
2018-02-08T07:48:22.521Z,-2.00
2018-02-08T07:50:50.790Z,-2.00
2018-02-08T07:53:19.058Z,-2.00
2018-02-08T07:55:46.583Z,-2.00
2018-02-08T07:58:14.093Z,-2.00
2018-02-08T08:00:42.381Z,-1.90
2018-02-08T08:03:09.947Z,-1.90
2018-02-08T08:05:37.470Z,-1.90
2018-02-08T08:08:04.976Z,-1.90
2018-02-08T08:10:32.506Z,-1.90
2018-02-08T08:13:00.782Z,-1.80
2018-02-08T08:15:29.069Z,-1.80
2018-02-08T08:17:56.574Z,-1.80
2018-02-08T08:20:24.098Z,-1.70
2018-02-08T08:22:51.602Z,-1.80
2018-02-08T08:25:19.135Z,-1.70
2018-02-08T08:27:46.642Z,-1.70
2018-02-08T08:30:14.934Z,-1.60
2018-02-08T08:32:42.438Z,-1.60
2018-02-08T08:35:09.966Z,-1.50
2018-02-08T08:37:37.476Z,-1.40
2018-02-08T08:40:05.003Z,-1.20
2018-02-08T08:42:32.506Z,-1.20
2018-02-08T08:45:00.790Z,-1.20
2018-02-08T08:47:29.082Z,-1.10
2018-02-08T08:49:56.602Z,-1.20
2018-02-08T08:52:24.200Z,-1.20
2018-02-08T08:54:51.726Z,-1.20
2018-02-08T08:57:20.006Z,-1.10
2018-02-08T08:59:48.310Z,-1.10
2018-02-08T09:02:15.866Z,-1.10
2018-02-08T09:04:43.385Z,-1.00
2018-02-08T09:07:12.397Z,-0.90
2018-02-08T09:09:40.694Z,-1.00
2018-02-08T09:12:08.205Z,-1.00
2018-02-08T09:14:35.730Z,-1.00
2018-02-08T09:17:03.274Z,-0.90
2018-02-08T09:19:30.801Z,-0.80
2018-02-08T09:21:58.511Z,-0.60
2018-02-08T09:24:26.038Z,-0.60
2018-02-08T09:26:54.309Z,-0.50
2018-02-08T09:29:22.598Z,-0.40
2018-02-08T09:31:50.105Z,-0.40
2018-02-08T09:34:17.622Z,-0.40
2018-02-08T09:36:45.442Z,-0.30
2018-02-08T09:39:14.469Z,0.00
2018-02-08T09:41:42.815Z,0.30
2018-02-08T09:44:10.309Z,0.30
2018-02-08T09:46:37.830Z,0.40
2018-02-08T09:49:05.327Z,0.30
2018-02-08T09:51:32.886Z,0.20
2018-02-08T09:54:00.395Z,0.30
2018-02-08T09:56:28.001Z,0.40
2018-02-08T09:58:55.510Z,0.40
2018-02-08T10:01:23.032Z,0.40
2018-02-08T10:03:50.530Z,0.30
2018-02-08T10:06:18.047Z,0.20
2018-02-08T10:08:45.554Z,0.30
2018-02-08T10:11:13.159Z,0.30
2018-02-08T10:13:40.670Z,0.40
2018-02-08T10:16:08.275Z,0.40
2018-02-08T10:18:35.788Z,0.50
2018-02-08T10:21:03.395Z,0.70
2018-02-08T10:23:30.899Z,0.80
2018-02-08T10:25:58.427Z,0.80
2018-02-08T10:28:25.961Z,1.00
2018-02-08T10:30:54.242Z,0.90
2018-02-08T10:33:21.747Z,0.90
2018-02-08T10:35:49.357Z,1.00
2018-02-08T10:38:16.862Z,1.20
2018-02-08T10:40:44.382Z,1.30
2018-02-08T10:43:11.885Z,1.50
2018-02-08T10:45:39.414Z,1.70
2018-02-08T10:48:06.918Z,1.70
2018-02-08T10:50:34.434Z,1.50
2018-02-08T10:53:01.938Z,1.70
2018-02-08T10:55:29.462Z,1.90
2018-02-08T10:57:56.986Z,2.00
2018-02-08T11:00:24.502Z,1.90
2018-02-08T11:02:52.003Z,1.90
2018-02-08T11:05:19.572Z,2.20
2018-02-08T11:07:47.070Z,2.00
2018-02-08T11:10:14.681Z,2.40
2018-02-08T11:12:42.246Z,2.30
2018-02-08T11:15:09.807Z,2.00
2018-02-08T11:17:37.326Z,1.90
2018-02-08T11:20:04.830Z,1.50
2018-02-08T11:22:32.341Z,1.50
2018-02-08T11:24:59.842Z,1.50
2018-02-08T11:27:27.394Z,1.30
2018-02-08T11:29:54.898Z,1.30
2018-02-08T11:32:22.418Z,1.20
2018-02-08T11:34:49.965Z,1.20
2018-02-08T11:37:17.476Z,1.40
2018-02-08T11:39:44.969Z,1.60
2018-02-08T11:42:13.251Z,1.70
2018-02-08T11:44:40.809Z,1.70
2018-02-08T11:47:09.085Z,1.70
2018-02-08T11:49:36.586Z,1.70
2018-02-08T11:52:04.210Z,1.70
2018-02-08T11:54:31.769Z,1.40
2018-02-08T11:56:59.335Z,1.20
2018-02-08T11:59:26.858Z,1.00
2018-02-08T12:01:54.355Z,1.00
2018-02-08T12:04:21.903Z,1.00
2018-02-08T12:06:49.465Z,1.00
2018-02-08T12:09:16.988Z,1.10
2018-02-08T12:11:44.499Z,1.20
2018-02-08T12:14:12.039Z,1.10
2018-02-08T12:16:39.557Z,1.10
2018-02-08T12:19:07.073Z,1.20
2018-02-08T12:21:34.577Z,1.20
2018-02-08T12:24:02.165Z,1.10
2018-02-08T12:26:29.666Z,1.10
2018-02-08T12:28:57.283Z,1.10
2018-02-08T12:31:24.777Z,1.00
2018-02-08T12:33:52.728Z,0.90
2018-02-08T12:36:20.308Z,1.00
2018-02-08T12:38:47.843Z,1.00
2018-02-08T12:41:15.397Z,1.00
2018-02-08T12:43:42.950Z,1.00
2018-02-08T12:46:10.514Z,0.90
2018-02-08T12:48:38.038Z,1.00
2018-02-08T12:51:05.630Z,0.90
2018-02-08T12:53:33.146Z,0.90
2018-02-08T12:56:00.646Z,0.90
2018-02-08T12:58:28.205Z,0.90
2018-02-08T13:00:55.767Z,0.90
2018-02-08T13:03:23.326Z,0.90
2018-02-08T13:05:50.823Z,0.90
2018-02-08T13:08:18.350Z,0.80
2018-02-08T13:10:46.324Z,0.70
2018-02-08T13:13:13.874Z,0.80
2018-02-08T13:15:41.378Z,0.80
2018-02-08T13:18:08.879Z,0.80
2018-02-08T13:20:36.397Z,0.70
2018-02-08T13:23:03.993Z,0.70
2018-02-08T13:25:32.273Z,0.70
2018-02-08T13:27:59.841Z,0.70
2018-02-08T13:30:27.362Z,0.70
2018-02-08T13:32:54.866Z,0.80
2018-02-08T13:35:22.414Z,0.80
2018-02-08T13:37:49.907Z,0.80
2018-02-08T13:40:22.095Z,0.70
2018-02-08T13:42:49.682Z,0.60
2018-02-08T13:45:17.962Z,0.60
2018-02-08T13:47:49.750Z,0.60
2018-02-08T13:50:18.179Z,0.60
2018-02-08T13:52:51.405Z,0.80
2018-02-08T13:55:24.570Z,0.80
2018-02-08T13:57:55.834Z,0.80
2018-02-08T14:00:28.965Z,0.80
2018-02-08T14:02:56.508Z,0.90
2018-02-08T14:05:24.864Z,0.90
2018-02-08T14:07:52.362Z,0.90
2018-02-08T14:10:19.890Z,0.90
2018-02-08T14:12:47.438Z,0.80
2018-02-08T14:15:14.954Z,0.80
2018-02-08T14:17:42.455Z,0.80
2018-02-08T14:20:10.119Z,0.80
2018-02-08T14:22:37.761Z,0.70
2018-02-08T14:25:06.058Z,0.70
2018-02-08T14:27:33.619Z,0.70
2018-02-08T14:30:01.135Z,0.50
2018-02-08T14:32:28.633Z,0.30
2018-02-08T14:34:56.154Z,0.10
2018-02-08T14:37:23.656Z,0.00
2018-02-08T14:39:51.239Z,0.00
2018-02-08T14:42:18.739Z,0.00
2018-02-08T14:44:47.006Z,0.00
2018-02-08T14:47:14.526Z,0.00
2018-02-08T14:49:42.031Z,-0.10
2018-02-08T14:52:10.335Z,-0.10
2018-02-08T14:54:37.837Z,-0.10
2018-02-08T14:57:05.451Z,0.00
2018-02-08T14:59:33.014Z,-0.10
2018-02-08T15:02:00.574Z,-0.10
2018-02-08T15:04:28.090Z,-0.10
2018-02-08T15:06:55.617Z,-0.10
2018-02-08T15:09:23.146Z,-0.10
2018-02-08T15:11:50.666Z,-0.10
2018-02-08T15:14:18.172Z,-0.20
2018-02-08T15:16:45.694Z,-0.20
2018-02-08T15:19:13.969Z,-0.30
2018-02-08T15:21:42.599Z,-0.40
2018-02-08T15:24:10.110Z,-0.40
2018-02-08T15:26:38.413Z,-0.40
2018-02-08T15:29:05.957Z,-0.40
2018-02-08T15:31:33.474Z,-0.40
2018-02-08T15:34:00.977Z,-0.30
2018-02-08T15:36:29.266Z,-0.30
2018-02-08T15:38:56.822Z,-0.30
2018-02-08T15:41:24.350Z,-0.40
2018-02-08T15:43:51.853Z,-0.20
2018-02-08T15:46:19.374Z,-0.10
2018-02-08T15:48:47.646Z,-0.20
2018-02-08T15:51:15.233Z,-0.20
2018-02-08T15:53:42.793Z,-0.20
2018-02-08T15:56:10.354Z,-0.30
2018-02-08T15:58:37.882Z,-0.20
2018-02-08T16:01:05.470Z,-0.40
2018-02-08T16:03:32.986Z,-0.40
2018-02-08T16:06:00.593Z,-0.40
2018-02-08T16:08:28.115Z,-0.50
2018-02-08T16:10:55.623Z,-0.60
2018-02-08T16:13:23.175Z,-0.70
2018-02-08T16:15:50.681Z,-0.60
2018-02-08T16:18:18.206Z,-0.70
2018-02-08T16:20:45.718Z,-0.70
2018-02-08T16:23:14.016Z,-0.80
2018-02-08T16:25:41.517Z,-0.90
2018-02-08T16:28:09.133Z,-0.90
2018-02-08T16:30:36.642Z,-0.90
2018-02-08T16:33:04.250Z,-0.90
2018-02-08T16:35:31.758Z,-0.90
2018-02-08T16:37:59.282Z,-0.90
2018-02-08T16:40:26.786Z,-0.90
2018-02-08T16:42:54.385Z,-0.90
2018-02-08T16:45:21.887Z,-0.90
2018-02-08T16:47:49.411Z,-0.90
2018-02-08T16:50:17.062Z,-0.90
2018-02-08T16:52:44.590Z,-0.90
2018-02-08T16:55:12.093Z,-0.90
2018-02-08T16:57:39.613Z,-1.00
2018-02-08T17:00:07.890Z,-1.00
2018-02-08T17:02:36.181Z,-1.10
2018-02-08T17:05:04.450Z,-1.00
2018-02-08T17:07:32.744Z,-1.00
2018-02-08T17:10:00.573Z,-1.00
2018-02-08T17:12:28.866Z,-1.00
2018-02-08T17:14:57.150Z,-1.00
2018-02-08T17:17:25.549Z,-1.00
2018-02-08T17:19:53.098Z,-1.00
2018-02-08T17:22:20.617Z,-0.90
2018-02-08T17:24:48.123Z,-0.90
2018-02-08T17:27:15.654Z,-0.90
2018-02-08T17:29:43.926Z,-1.00
2018-02-08T17:32:12.217Z,-1.10
2018-02-08T17:34:39.726Z,-1.10
2018-02-08T17:37:07.241Z,-1.10
2018-02-08T17:39:34.753Z,-1.10
2018-02-08T17:42:02.578Z,-1.10
2018-02-08T17:44:30.099Z,-1.10
2018-02-08T17:46:58.371Z,-1.20
2018-02-08T17:49:25.890Z,-1.20
2018-02-08T17:51:53.398Z,-1.30
2018-02-08T17:54:21.691Z,-1.40
2018-02-08T17:56:49.207Z,-1.30
2018-02-08T17:59:16.727Z,-1.30
2018-02-08T18:01:44.233Z,-1.30
2018-02-08T18:04:11.757Z,-1.30
2018-02-08T18:06:39.258Z,-1.30
2018-02-08T18:09:07.547Z,-1.30
2018-02-08T18:11:35.822Z,-1.20
2018-02-08T18:14:04.111Z,-1.20
2018-02-08T18:16:31.618Z,-1.20
2018-02-08T18:18:59.136Z,-1.20
2018-02-08T18:21:26.647Z,-1.20
2018-02-08T18:23:54.174Z,-1.20
2018-02-08T18:26:21.683Z,-1.20
2018-02-08T18:28:49.974Z,-1.30
2018-02-08T18:31:17.494Z,-1.30
2018-02-08T18:33:45.014Z,-1.30
2018-02-08T18:36:12.517Z,-1.30
2018-02-08T18:38:40.034Z,-1.30
2018-02-08T18:41:08.699Z,-1.30
2018-02-08T18:43:36.224Z,-1.30
2018-02-08T18:46:03.727Z,-1.30
2018-02-08T18:48:31.253Z,-1.30
2018-02-08T18:50:59.533Z,-1.30
2018-02-08T18:53:27.828Z,-1.40
2018-02-08T18:55:55.347Z,-1.40
2018-02-08T18:58:22.866Z,-1.40
2018-02-08T19:00:50.386Z,-1.40
2018-02-08T19:03:18.655Z,-1.40
2018-02-08T19:05:46.942Z,-1.40
2018-02-08T19:08:15.213Z,-1.40
2018-02-08T19:10:43.502Z,-1.40
2018-02-08T19:13:11.067Z,-1.40
2018-02-08T19:15:38.591Z,-1.40
2018-02-08T19:18:06.866Z,-1.30
2018-02-08T19:20:34.391Z,-1.30
2018-02-08T19:23:01.894Z,-1.30
2018-02-08T19:25:30.290Z,-1.30
2018-02-08T19:27:57.794Z,-1.30
2018-02-08T19:30:25.309Z,-1.20
2018-02-08T19:32:52.817Z,-1.20
2018-02-08T19:35:20.343Z,-1.30
2018-02-08T19:37:47.841Z,-1.40
2018-02-08T19:40:15.358Z,-1.40
2018-02-08T19:42:42.857Z,-1.40
2018-02-08T19:45:10.377Z,-1.40
2018-02-08T19:47:37.886Z,-1.40
2018-02-08T19:50:06.173Z,-1.40
2018-02-08T19:52:34.447Z,-1.40
2018-02-08T19:55:02.752Z,-1.40
2018-02-08T19:57:30.253Z,-1.30
2018-02-08T19:59:57.762Z,-1.30
2018-02-08T20:02:25.285Z,-1.30
2018-02-08T20:04:52.786Z,-1.40
2018-02-08T20:07:20.314Z,-1.40
2018-02-08T20:09:48.582Z,-1.50
2018-02-08T20:12:16.879Z,-1.40
2018-02-08T20:14:46.850Z,-1.50
2018-02-08T20:17:14.381Z,-1.40
2018-02-08T20:19:41.886Z,-1.40
2018-02-08T20:22:09.406Z,-1.40
2018-02-08T20:24:36.916Z,-1.40
2018-02-08T20:27:05.202Z,-1.40
2018-02-08T20:29:33.473Z,-1.40
2018-02-08T20:32:01.762Z,-1.40
2018-02-08T20:34:29.265Z,-1.40
2018-02-08T20:36:57.360Z,-1.40
2018-02-08T20:39:24.867Z,-1.40
2018-02-08T20:41:52.422Z,-1.40
2018-02-08T20:44:19.962Z,-1.40
2018-02-08T20:46:47.502Z,-1.40
2018-02-08T20:49:15.118Z,-1.40
2018-02-08T20:51:42.711Z,-1.40
2018-02-08T20:54:10.306Z,-1.40
2018-02-08T20:56:37.830Z,-1.40
2018-02-08T20:59:05.462Z,-1.40
2018-02-08T21:01:32.961Z,-1.40
2018-02-08T21:04:01.254Z,-1.40
2018-02-08T21:06:28.757Z,-1.40
2018-02-08T21:08:56.278Z,-1.40
2018-02-08T21:11:23.785Z,-1.50
2018-02-08T21:13:51.306Z,-1.50
2018-02-08T21:16:18.813Z,-1.50
2018-02-08T21:18:46.334Z,-1.50
2018-02-08T21:21:13.866Z,-1.40
2018-02-08T21:23:41.382Z,-1.40
2018-02-08T21:26:08.882Z,-1.40
2018-02-08T21:28:36.397Z,-1.40
2018-02-08T21:31:03.909Z,-1.40
2018-02-08T21:33:31.438Z,-1.40
2018-02-08T21:35:59.715Z,-1.40
2018-02-08T21:38:28.032Z,-1.40
2018-02-08T21:40:55.543Z,-1.50
2018-02-08T21:43:23.830Z,-1.40
2018-02-08T21:45:52.099Z,-1.50
2018-02-08T21:48:20.422Z,-1.50
2018-02-08T21:50:47.921Z,-1.50
2018-02-08T21:53:15.436Z,-1.40
2018-02-08T21:55:42.942Z,-1.40
2018-02-08T21:58:10.466Z,-1.30
2018-02-08T22:00:37.990Z,-1.30
2018-02-08T22:03:05.500Z,-1.30
2018-02-08T22:05:33.027Z,-1.30
2018-02-08T22:08:00.537Z,-1.30
2018-02-08T22:10:28.823Z,-1.40
2018-02-08T22:12:57.091Z,-1.40
2018-02-08T22:15:25.384Z,-1.40
2018-02-08T22:17:53.654Z,-1.40
2018-02-08T22:20:21.938Z,-1.40
2018-02-08T22:22:49.438Z,-1.40
2018-02-08T22:25:16.957Z,-1.40
2018-02-08T22:27:44.475Z,-1.40
2018-02-08T22:30:12.043Z,-1.40
2018-02-08T22:32:40.394Z,-1.40
2018-02-08T22:35:07.959Z,-1.30
2018-02-08T22:37:35.505Z,-1.40
2018-02-08T22:40:03.042Z,-1.40
2018-02-08T22:42:30.551Z,-1.50
2018-02-08T22:44:58.155Z,-1.50
2018-02-08T22:47:25.715Z,-1.40
2018-02-08T22:49:53.234Z,-1.40
2018-02-08T22:52:20.739Z,-1.40
2018-02-08T22:54:48.291Z,-1.30
2018-02-08T22:57:15.798Z,-1.30
2018-02-08T22:59:44.117Z,-1.40
2018-02-08T23:02:11.626Z,-1.40
2018-02-08T23:04:39.171Z,-1.40
2018-02-08T23:07:06.687Z,-1.40
2018-02-08T23:09:34.194Z,-1.30
2018-02-08T23:12:01.710Z,-1.30
2018-02-08T23:14:29.218Z,-1.40
2018-02-08T23:16:56.738Z,-1.40
2018-02-08T23:19:24.242Z,-1.40
2018-02-08T23:21:51.843Z,-1.40
2018-02-08T23:24:19.351Z,-1.40
2018-02-08T23:26:46.884Z,-1.40
2018-02-08T23:29:14.394Z,-1.40
2018-02-08T23:31:42.683Z,-1.50
2018-02-08T23:34:10.959Z,-1.50
2018-02-08T23:36:39.246Z,-1.50
2018-02-08T23:39:06.805Z,-1.50
2018-02-08T23:41:34.330Z,-1.40
2018-02-08T23:44:01.839Z,-1.40
2018-02-08T23:46:29.358Z,-1.40
2018-02-08T23:48:57.658Z,-1.40
2018-02-08T23:51:25.934Z,-1.50
2018-02-08T23:53:53.441Z,-1.50
2018-02-08T23:56:21.053Z,-1.50
2018-02-08T23:58:48.610Z,-1.50
